Weather observations for the past three days for
Pine Bluff, Grider Field Airport
Imperial (Metric)
Date Time (cdt) Wind (mph) Vis. (mi.) Weather Sky Cond. Temperature (ºF) Relative Humidity Wind Chill (°F) Heat Index (°F) Pressure Precipitation (in)
Air Dwpt 6 hour altimeter (in) sea level (mb) 1 hr 3 hr 6 hr
Max. Min.
02 08:53 Calm 10.00 Light Rain CLR 62.1 48 60% 30.13 1020.0
02 07:53 NW 3 10.00 Light Rain CLR 55 50 83% 30.11 1019.5
02 06:53 Calm 10.00 Fair CLR 50 46 57 50 86% 30.09 1018.7
02 05:53 Calm 10.00 Light Rain CLR 51.1 46 83% 30.07 1018.1
02 04:53 Calm 10.00 Fair CLR 50 46 86% 30.06 1017.6
02 03:53 Calm 10.00 Fair CLR 52 46.9 83% 30.04 1017.2
02 02:53 Calm 10.00 Light Rain CLR 55 48 77% 30.03 1016.9
02 01:53 N 3 10.00 Rain CLR 57 48 72% 30.04 1017.3
02 00:53 NW 3 10.00 Fair CLR 57 48 64 55.9 72% 30.05 1017.5
01 23:53 NW 3 10.00 Light Rain CLR 59 46.9 64% 30.05 1017.5
01 22:53 N 5 10.00 Light Rain CLR 57.9 48 70% 30.05 1017.5
01 21:53 N 3 10.00 Fair CLR 59 48 67% 30.04 1017.1
01 20:53 NE 7 10.00 Light Rain CLR 62.1 46 56% 30.01 1016.2
01 19:53 Calm 10.00 Light Rain CLR 63 50 63% 30.03 1016.8
01 18:53 E 7 10.00 Light Rain CLR 64 46.9 68 64 54% 29.98 1015.1
01 17:53 NE 8 10.00 Light Rain CLR 64.9 45 49% 29.98 1015.0
01 16:53 NE 12 10.00 Light Rain CLR 66 45 47% 29.96 1014.3
01 15:53 NE 13 10.00 Light Rain CLR 66 46 49% 29.97 1014.8
01 14:53 N 10 10.00 Light Rain CLR 66.9 46 47% 30.01 1016.0
01 13:53 NE 8 10.00 Light Rain CLR 66 45 47% 30.03 1016.8
01 12:53 NE 8 10.00 Light Rain CLR 64.9 46.9 64.9 55.9 52% 30.06 1017.7
01 11:53 NE 12 10.00 Light Rain CLR 64 48.9 58% 30.07 1018.1
01 10:53 NE 12 10.00 Light Rain CLR 62.1 48 60% 30.05 1017.6
01 09:53 N 10 10.00 Fair CLR 61 48 63% 30.06 1017.7
01 08:53 N 8 10.00 Fair CLR 59 46.9 64% 30.06 1017.7
01 07:53 N 6 10.00 Fair CLR 57.9 48.9 72% 30.03 1016.9
01 06:53 N 5 10.00 Light Rain CLR 55.9 48 59 55 75% 30.03 1016.8
01 05:53 N 6 10.00 Light Rain CLR 55.9 48.9 77% 30 1015.9
01 04:53 N 3 10.00 Light Rain CLR 55.9 48.9 77% 30 1015.9
01 03:53 N 7 10.00 Light Rain CLR 57 48 72% 29.99 1015.5
01 02:53 N 3 10.00 Light Rain CLR 57 48.9 74% 29.99 1015.4
01 01:53 N 6 10.00 Light Rain BKN120 59 48 67% 30.01 1016.0
01 00:53 N 3 10.00 Rain OVC100 57.9 48 64 57.9 70% 30.01 1016.1
30 23:53 N 5 10.00 Light Rain SCT120 57.9 48.9 72% 30.02 1016.3
30 22:53 N 6 10.00 Light Rain SCT120 59 48.9 69% 30.02 1016.5
30 21:53 N 7 10.00 Light Rain CLR 60.1 48 65% 30.01 1016.1
30 20:53 NE 8 10.00 Light Rain CLR 61 46 58% 29.99 1015.4
30 19:53 N 8 10.00 Light Rain FEW100 62.1 46.9 58% 29.98 1015.1
30 18:53 NE 9 10.00 Light Rain CLR 64 46 68 64 52% 29.96 1014.5
30 17:53 NE 12 10.00 Light Rain CLR 66 46 49% 29.95 1014.1
30 16:53 NE 9 10.00 Light Rain CLR 66.9 46.9 49% 29.97 1014.6
30 15:53 NE 8 10.00 Light Rain CLR 66.9 48 51% 29.99 1015.3
30 14:53 N 9 10.00 Light Rain CLR 68 48 49% 30 1015.6
30 13:53 NE 13 10.00 Light Rain CLR 66.9 48 51% 30 1015.6
30 12:53 NE 14 G 22 10.00 Light Rain CLR 68 48.9 68 57.9 51% 30.02 1016.5
30 11:53 E 13 10.00 Light Rain CLR 66.9 48 51% 30.04 1016.9
30 10:53 NE 12 10.00 Light Rain CLR 64.9 48 54% 30.05 1017.3
30 09:53 NE 15 G 23 10.00 Light Rain CLR 63 46.9 56% 30.04 1017.0
30 08:53 NE 12 G 22 10.00 Light Rain CLR 60.1 48 65% 30.03 1016.9
30 07:53 NE 12 10.00 Light Rain CLR 59 48 67% 30.03 1016.7
30 06:53 NE 10 10.00 Light Rain CLR 57.9 48 64 57.9 70% 30.02 1016.3
30 05:53 NE 12 10.00 Light Rain CLR 59 48.9 69% 30.02 1016.3
30 04:53 N 10 10.00 Light Rain CLR 60.1 52 75% 30 1015.6
30 03:53 N 9 10.00 Light Rain CLR 61 55.9 84% 29.97 1014.7
30 02:53 N 8 10.00 Light Rain CLR 62.1 57 84% 29.97 1014.5
30 01:53 Calm 10.00 Overcast OVC080 63 59 87% 29.98 1014.9
30 00:53 Calm 10.00 Overcast FEW037 OVC070 63 60.1 64 63 90% 30 1015.5 0.01
29 23:53 N 5 10.00 Overcast OVC065 63 60.1 90% 29.97 1014.8 0.01
29 22:53 NE 5 10.00 Thunderstorm in Vicinity Light Rain BKN065 BKN080 64 57.9 81% 29.96 1014.4
29 21:53 NE 7 10.00 Light Rain SCT110 64 57.9 81% 29.95 1013.9
29 20:53 Calm 10.00 Light Rain OVC060 64 59 84% 29.95 1014.1
29 19:53 N 3 10.00 Overcast BKN065 OVC100 64 59 84% 29.94 1013.5
29 18:53 N 6 10.00 Light Rain SCT028 BKN055 64 57 66 63 78% 29.93 1013.4 0.06
29 17:53 NE 7 10.00 Light Rain FEW026 BKN049 64.9 57 76% 29.92 1013.0
29 16:53 N 13 10.00 Light Rain OVC018 63 57.9 84% 29.9 1012.2
29 15:53 N 15 10.00 Overcast OVC018 64.9 57.9 78% 29.93 1013.2 0.06 0.06
29 14:53 N 10 10.00 Light Rain OVC016 64.9 57.9 78% 29.96 1014.4
29 13:53 N 10 10.00 Overcast OVC016 64.9 57.9 78% 30 1015.5
29 12:53 NE 13 G 23 10.00 Overcast OVC014 64.9 57 66.9 64.9 76% 29.99 1015.5
29 11:53 N 16 10.00 Overcast OVC014 64.9 57.9 78% 30.01 1015.9
29 10:53 N 13 10.00 Light Rain OVC017 66 59 78% 30.02 1016.4
29 09:53 N 14 10.00 Light Rain OVC014 66 59 78% 30.01 1015.9
Date Time (cdt) Wind (mph) Vis. (mi.) Weather Sky Cond. Air Dwpt Max. Min. Relative Humidity Wind Chill (°F) Heat Index (°F) altimeter (in) sea level (mb) 1 hr 3 hr 6 hr
6 hour
Temperature (ºF) Pressure Precipitation (in)